• Join FlightAware (Why Join?)
  • Login
  • US Flag 
12:19PM EDT


 

Airport Tracker/Info


-or-


 

Live Flight TrackerFlight Track Log ✈ EJA574 ✈ 18-Feb-2014 ✈ KGSO - KBCT

Flight Track Log - Related Links

Times and Time Zones

All times are in EST time to prevent confusion due to time zone crossing. See the EJA574 flight status page for this flight to view local times or setup timezone preferences in your user account.

Time Position Orientation Groundspeed Altitude Reporting Facility
EST Latitude Longitude Course Direction KTS MPH feet Rate Location/Type
10:17AM 35.9900 -79.9428 202° Southwest 262 302 7,700  Level Atlanta Center
10:19AM 35.8467 -80.0294 206° Southwest 327 376 12,000 1,380 Climbing Atlanta Center
10:20AM 35.7628 -80.0797 206° Southwest 353 406 11,900 300 Descending Atlanta Center
10:21AM 35.5845 -80.1912 202° Southwest  Level FlightAware Approximate
10:21AM 35.6911 -80.1217 205° Southwest 333 383 12,600  Level Atlanta Center
10:22AM 35.6158 -80.1764 211° Southwest 320 368 15,300 2,700 Climbing Atlanta Center
10:23AM 35.5381 -80.2258 207° Southwest 320 368 18,100 2,820 Climbing Atlanta Center
10:24AM 35.4539 -80.2681 202° Southwest 325 374 21,000 3,000 Climbing Atlanta Center
10:25AM 35.3675 -80.3128 203° Southwest 332 382 24,100 2,820 Climbing Atlanta Center
10:26AM 35.2789 -80.3497 199° South 338 389 26,700 2,340 Climbing Atlanta Center
10:27AM 35.1797 -80.3769 193° South 348 400 28,800 1,920 Climbing Atlanta Center
10:28AM 35.0222 -80.4261 194° South 365 420 31,800 1,200 Climbing Jacksonville Center
10:29AM 34.9142 -80.4522 191° South 378 435 32,000 60 Climbing Jacksonville Center
10:30AM 34.7981 -80.4883 194° South 395 455 32,000  Level Jacksonville Center
10:31AM 34.6883 -80.5192 193° South 395 455 32,000  Level Jacksonville Center
10:32AM 34.5761 -80.5475 192° South 407 468 32,000 300 Level Jacksonville Center
10:33AM 34.4619 -80.5808 194° South 412 474 32,700 900 Climbing Jacksonville Center
10:34AM 34.3519 -80.6089 192° South 412 474 33,900 780 Climbing Jacksonville Center
10:35AM 34.2419 -80.6419 194° South 412 474 34,300 1,080 Climbing Jacksonville Center
10:36AM 34.1339 -80.6722 193° South 412 474 36,100 1,740 Climbing Jacksonville Center
10:37AM 34.0281 -80.6975 191° South 407 468 37,800 1,680 Climbing Jacksonville Center
10:38AM 33.9242 -80.7303 195° South 395 455 39,500 1,080 Climbing Jacksonville Center
10:39AM 33.8225 -80.7553 192° South 389 448 40,000 240 Climbing Jacksonville Center
10:40AM 33.7144 -80.7878 194° South 389 448 40,000  Level Jacksonville Center
10:41AM 33.6064 -80.8128 191° South 399 459 40,000  Level Jacksonville Center
10:42AM 33.4964 -80.8453 194° South 399 459 40,000  Level Jacksonville Center
10:43AM 33.3883 -80.8725 192° South 399 459 40,000  Level Jacksonville Center
10:44AM 33.2781 -80.9025 193° South 404 465 40,000  Level Jacksonville Center
10:45AM 33.1700 -80.9297 192° South 409 471 40,000  Level Jacksonville Center
10:46AM 33.0597 -80.9594 193° South 409 471 40,000  Level Jacksonville Center
10:47AM 32.9539 -80.9889 193° South 409 471 40,000  Level Jacksonville Center
10:48AM 32.8478 -81.0183 193° South 409 471 40,000  Level Jacksonville Center
10:49AM 32.7417 -81.0453 192° South 404 465 40,000  Level Jacksonville Center
10:50AM 32.6378 -81.0744 193° South 390 449 40,000  Level Jacksonville Center
10:51AM 32.5339 -81.1011 192° South 390 449 40,000  Level Jacksonville Center
10:52AM 32.4361 -81.1278 193° South 396 456 40,000  Level Jacksonville Center
10:53AM 32.3153 -81.1569 192° South 401 461 40,000  Level Jacksonville Center
10:54AM 32.2092 -81.1836 192° South 396 456 40,000  Level Jacksonville Center
10:55AM 32.1008 -81.1978 186° South 390 449 40,000  Level Jacksonville Center
10:56AM 31.9861 -81.1953 179° South 410 472 40,000  Level Jacksonville Center
10:57AM 31.8692 -81.1925 179° South 421 484 40,000  Level Jacksonville Center
10:58AM 31.7667 -81.1894 179° South 421 484 40,000  Level Jacksonville Center
10:59AM 31.6372 -81.1844 178° South 421 484 40,000  Level Jacksonville Center
11:00AM 31.5203 -81.1817 179° South 421 484 40,000  Level Jacksonville Center
11:01AM 31.4139 -81.1789 179° South 426 490 40,000  Level Jacksonville Center
11:02AM 31.2947 -81.1761 179° South 420 483 40,000  Level Jacksonville Center
11:03AM 31.1778 -81.1708 178° South 420 483 40,000  Level Jacksonville Center
11:04AM 31.0608 -81.1683 179° South 420 483 40,000  Level Jacksonville Center
11:05AM 30.9417 -81.1631 178° South 420 483 40,000  Level Jacksonville Center
11:06AM 30.8289 -81.1581 178° South 420 483 40,000  Level Jacksonville Center
11:07AM 30.7097 -81.1553 179° South 420 483 40,000  Level Jacksonville Center
11:08AM 30.5928 -81.1525 179° South 420 483 40,000  Level Jacksonville Center
11:09AM 30.4758 -81.1475 178° South 420 483 40,000  Level Jacksonville Center
11:10AM 30.3589 -81.1447 179° South 420 483 40,000  Level Jacksonville Center
11:11AM 30.2419 -81.1422 179° South 420 483 40,000  Level Jacksonville Center
11:12AM 30.1272 -81.1394 179° South 420 483 40,000  Level Jacksonville Center
11:13AM 30.0100 -81.1344 178° South 420 483 40,000 -600 Level Jacksonville Center
11:14AM 29.8931 -81.1317 179° South 420 483 38,900 -1,020 Descending Jacksonville Center
11:15AM 29.7742 -81.1292 179° South 420 483 38,000 -480 Descending Jacksonville Center
11:16AM 29.6572 -81.1264 179° South 420 483 38,000 -180 Level Jacksonville Center
11:17AM 29.5425 -81.1236 179° South 420 483 37,700 -900 Descending Jacksonville Center
11:18AM 29.4150 -81.1189 178° South 420 483 36,200 -900 Descending Jacksonville Center
11:19AM 29.2978 -81.1042 174° South 420 483 36,000 -60 Descending Jacksonville Center
11:23AM 28.9744 -80.8800 149° Southeast 461 531 36,000  Level Miami Center
11:24AM 28.8561 -80.7903 146° Southeast 476 548 36,000  Level Miami Center
11:25AM 28.7578 -80.7253 150° Southeast 476 548 36,000 -240 Level Miami Center
11:26AM 28.6403 -80.6692 157° South 461 531 35,600 -540 Descending Miami Center
11:27AM 28.5119 -80.6269 164° South 447 514 35,000 -540 Descending Miami Center
11:28AM 28.3939 -80.5947 166° South 439 505 34,600 -1,140 Descending Miami Center
11:29AM 28.2844 -80.5556 163° South 426 490 32,800 -2,220 Descending Miami Center
11:30AM 28.1708 -80.5072 159° South 420 483 30,200 -2,640 Descending Miami Center
11:31AM 28.0531 -80.4564 159° South 431 496 27,600 -2,700 Descending Miami Center
11:32AM 27.9375 -80.4058 159° South 447 514 24,800 -2,820 Descending Miami Center
11:33AM 27.8197 -80.3550 159° South 452 520 22,000 -2,700 Descending Miami Center
11:34AM 27.7125 -80.3072 158° South 438 504 19,400 -2,400 Descending Miami Center
11:35AM 27.6111 -80.2644 159° South 423 487 17,300 -2,400 Descending Miami Center
11:36AM 27.5161 -80.2242 159° South 389 448 14,700 -2,400 Descending Miami Center
11:37AM 27.4250 -80.1839 159° South 358 412 12,600 -2,040 Descending Miami Center
11:38AM 27.3506 -80.1514 159° South 331 381 10,700 -1,320 Descending Miami Center
11:39AM 27.2717 -80.1328 168° South 306 352 10,000 -900 Descending Miami Center
11:40AM 27.2019 -80.0772 145° Southeast 280 322 9,000 -540 Descending Miami Center
11:41AM 27.1447 -80.0194 138° Southeast 275 316 9,000 -540 Level Miami Center
11:42AM 27.0956 -79.9739 140° Southeast 268 308 8,000 -1,140 Descending Miami Center
11:43AM 27.0225 -79.9767 182° South 248 285 6,800 -1,440 Descending Miami Center
11:44AM 26.9464 -80.0189 206° Southwest 275 316 5,200 -900 Descending Miami Center
11:45AM 26.8894 -80.0500 206° Southwest 255 293 5,000 -120 Descending Miami Center
11:46AM 26.8303 -80.0786 203° Southwest 240 276 5,000 -240 Level Miami Center
11:49AM 26.6206 -80.1192 191° South 226 260 4,200 -240 Descending Miami Center
11:50AM 26.5556 -80.1314 190° South 221 254 4,000 -600 Descending Miami Center
11:51AM 26.4967 -80.1436 191° South 220 253 3,100 -1,140 Descending Miami Center
11:52AM 26.4342 -80.1419 179° South 209 241 1,800 -780 Descending Miami Center
11:53AM 26.3858 -80.1453 184° South 187 215 1,600 -540 Descending Miami Center
11:54AM 26.3547 -80.1467 182° South 134 154 800 -840 Descending Miami Center
11:56AM 26.3667 -80.1000 180° South  Level FlightAware Approximate
12:03PM 26.3785 -80.1077 180° South  Level Estimated
12:04PM 26.3785 -80.1077 180° South  Level Estimated